sensor_id;sensor_type;location;lat;lon;timestamp;P1;durP1;ratioP1;P2;durP2;ratioP2
55913;SDS011;58179;48.776;9.124;2023-07-20T00:01:28;8.20;;;2.40;;
55913;SDS011;58179;48.776;9.124;2023-07-20T00:03:54;4.07;;;2.67;;
55913;SDS011;58179;48.776;9.124;2023-07-20T00:06:22;4.97;;;2.38;;
55913;SDS011;58179;48.776;9.124;2023-07-20T00:08:50;4.38;;;2.47;;
55913;SDS011;58179;48.776;9.124;2023-07-20T00:11:16;10.60;;;2.83;;
55913;SDS011;58179;48.776;9.124;2023-07-20T00:13:42;5.10;;;2.63;;
55913;SDS011;58179;48.776;9.124;2023-07-20T00:16:08;3.97;;;2.50;;
55913;SDS011;58179;48.776;9.124;2023-07-20T00:18:34;2.85;;;2.30;;
55913;SDS011;58179;48.776;9.124;2023-07-20T00:21:01;3.25;;;2.13;;
55913;SDS011;58179;48.776;9.124;2023-07-20T00:23:28;4.60;;;2.33;;
55913;SDS011;58179;48.776;9.124;2023-07-20T00:25:54;5.18;;;2.20;;
55913;SDS011;58179;48.776;9.124;2023-07-20T00:28:21;5.97;;;2.50;;
55913;SDS011;58179;48.776;9.124;2023-07-20T00:30:47;3.67;;;2.20;;
55913;SDS011;58179;48.776;9.124;2023-07-20T00:33:16;3.38;;;2.42;;
55913;SDS011;58179;48.776;9.124;2023-07-20T00:35:43;4.85;;;2.42;;
55913;SDS011;58179;48.776;9.124;2023-07-20T00:38:09;8.13;;;2.80;;
55913;SDS011;58179;48.776;9.124;2023-07-20T00:40:38;4.65;;;2.55;;
55913;SDS011;58179;48.776;9.124;2023-07-20T00:43:05;3.38;;;2.30;;
55913;SDS011;58179;48.776;9.124;2023-07-20T00:45:31;4.88;;;2.45;;
55913;SDS011;58179;48.776;9.124;2023-07-20T00:47:59;5.73;;;2.40;;
55913;SDS011;58179;48.776;9.124;2023-07-20T00:50:28;3.95;;;2.50;;
55913;SDS011;58179;48.776;9.124;2023-07-20T00:52:56;6.30;;;2.20;;
55913;SDS011;58179;48.776;9.124;2023-07-20T00:55:23;4.07;;;2.20;;
55913;SDS011;58179;48.776;9.124;2023-07-20T00:57:51;3.93;;;2.60;;
55913;SDS011;58179;48.776;9.124;2023-07-20T01:00:18;6.20;;;2.70;;
55913;SDS011;58179;48.776;9.124;2023-07-20T01:02:44;3.55;;;2.28;;
55913;SDS011;58179;48.776;9.124;2023-07-20T01:05:10;5.82;;;2.58;;
55913;SDS011;58179;48.776;9.124;2023-07-20T01:07:38;3.30;;;2.22;;
55913;SDS011;58179;48.776;9.124;2023-07-20T01:10:12;3.60;;;2.40;;
55913;SDS011;58179;48.776;9.124;2023-07-20T01:12:46;5.67;;;2.70;;
55913;SDS011;58179;48.776;9.124;2023-07-20T01:15:17;3.97;;;2.47;;
55913;SDS011;58179;48.776;9.124;2023-07-20T01:17:44;3.40;;;2.67;;
55913;SDS011;58179;48.776;9.124;2023-07-20T01:20:12;5.63;;;2.50;;
55913;SDS011;58179;48.776;9.124;2023-07-20T01:25:55;4.22;;;2.50;;
55913;SDS011;58179;48.776;9.124;2023-07-20T01:31:36;5.70;;;2.80;;
55913;SDS011;58179;48.776;9.124;2023-07-20T01:34:03;5.37;;;2.67;;
55913;SDS011;58179;48.776;9.124;2023-07-20T01:36:34;7.72;;;2.80;;
55913;SDS011;58179;48.776;9.124;2023-07-20T01:39:02;4.60;;;2.63;;
55913;SDS011;58179;48.776;9.124;2023-07-20T01:41:29;5.03;;;2.67;;
55913;SDS011;58179;48.776;9.124;2023-07-20T01:43:57;5.07;;;2.87;;
55913;SDS011;58179;48.776;9.124;2023-07-20T01:46:24;5.93;;;2.80;;
55913;SDS011;58179;48.776;9.124;2023-07-20T01:48:52;5.57;;;3.38;;
55913;SDS011;58179;48.776;9.124;2023-07-20T01:51:19;6.85;;;3.00;;
55913;SDS011;58179;48.776;9.124;2023-07-20T01:53:45;5.75;;;2.67;;
55913;SDS011;58179;48.776;9.124;2023-07-20T01:56:11;5.00;;;2.55;;
55913;SDS011;58179;48.776;9.124;2023-07-20T01:58:37;4.65;;;2.67;;
55913;SDS011;58179;48.776;9.124;2023-07-20T02:01:04;4.65;;;2.70;;
55913;SDS011;58179;48.776;9.124;2023-07-20T02:03:30;5.32;;;2.92;;
55913;SDS011;58179;48.776;9.124;2023-07-20T02:05:58;4.50;;;2.73;;
55913;SDS011;58179;48.776;9.124;2023-07-20T02:08:24;5.95;;;3.00;;
55913;SDS011;58179;48.776;9.124;2023-07-20T02:10:50;8.77;;;2.90;;
55913;SDS011;58179;48.776;9.124;2023-07-20T02:13:17;7.43;;;3.08;;
55913;SDS011;58179;48.776;9.124;2023-07-20T02:15:43;3.83;;;2.80;;
55913;SDS011;58179;48.776;9.124;2023-07-20T02:18:09;6.78;;;2.80;;
55913;SDS011;58179;48.776;9.124;2023-07-20T02:20:36;6.47;;;2.90;;
55913;SDS011;58179;48.776;9.124;2023-07-20T02:23:03;4.03;;;2.87;;
55913;SDS011;58179;48.776;9.124;2023-07-20T02:25:29;4.20;;;2.88;;
55913;SDS011;58179;48.776;9.124;2023-07-20T02:27:56;5.85;;;2.90;;
55913;SDS011;58179;48.776;9.124;2023-07-20T02:30:23;5.43;;;3.10;;
55913;SDS011;58179;48.776;9.124;2023-07-20T02:32:49;5.70;;;2.93;;
55913;SDS011;58179;48.776;9.124;2023-07-20T02:35:15;4.72;;;2.92;;
55913;SDS011;58179;48.776;9.124;2023-07-20T02:37:42;5.18;;;3.33;;
55913;SDS011;58179;48.776;9.124;2023-07-20T02:40:10;5.22;;;3.20;;
55913;SDS011;58179;48.776;9.124;2023-07-20T02:42:36;4.65;;;3.13;;
55913;SDS011;58179;48.776;9.124;2023-07-20T02:45:02;5.32;;;3.10;;
55913;SDS011;58179;48.776;9.124;2023-07-20T02:47:30;4.55;;;3.08;;
55913;SDS011;58179;48.776;9.124;2023-07-20T02:49:56;4.45;;;3.08;;
55913;SDS011;58179;48.776;9.124;2023-07-20T02:52:22;6.30;;;3.13;;
55913;SDS011;58179;48.776;9.124;2023-07-20T02:54:49;4.40;;;2.70;;
55913;SDS011;58179;48.776;9.124;2023-07-20T02:57:17;5.65;;;3.20;;
55913;SDS011;58179;48.776;9.124;2023-07-20T02:59:43;6.32;;;3.00;;
55913;SDS011;58179;48.776;9.124;2023-07-20T03:02:09;5.75;;;3.08;;
55913;SDS011;58179;48.776;9.124;2023-07-20T03:04:35;4.25;;;2.80;;
55913;SDS011;58179;48.776;9.124;2023-07-20T03:07:02;5.47;;;2.87;;
55913;SDS011;58179;48.776;9.124;2023-07-20T03:09:29;5.28;;;3.10;;
55913;SDS011;58179;48.776;9.124;2023-07-20T03:11:55;5.90;;;3.00;;
55913;SDS011;58179;48.776;9.124;2023-07-20T03:14:22;3.90;;;2.72;;
55913;SDS011;58179;48.776;9.124;2023-07-20T03:16:49;4.90;;;2.83;;
55913;SDS011;58179;48.776;9.124;2023-07-20T03:19:15;6.10;;;3.30;;
55913;SDS011;58179;48.776;9.124;2023-07-20T03:21:41;7.10;;;3.10;;
55913;SDS011;58179;48.776;9.124;2023-07-20T03:24:07;5.63;;;2.80;;
55913;SDS011;58179;48.776;9.124;2023-07-20T03:26:34;9.02;;;3.33;;
55913;SDS011;58179;48.776;9.124;2023-07-20T03:29:01;5.40;;;2.97;;
55913;SDS011;58179;48.776;9.124;2023-07-20T03:31:29;6.35;;;3.22;;
55913;SDS011;58179;48.776;9.124;2023-07-20T03:33:55;4.10;;;2.70;;
55913;SDS011;58179;48.776;9.124;2023-07-20T03:36:21;4.90;;;3.15;;
55913;SDS011;58179;48.776;9.124;2023-07-20T03:38:47;10.07;;;3.10;;
55913;SDS011;58179;48.776;9.124;2023-07-20T03:41:15;4.18;;;2.78;;
55913;SDS011;58179;48.776;9.124;2023-07-20T03:43:41;6.57;;;2.90;;
55913;SDS011;58179;48.776;9.124;2023-07-20T03:46:07;4.45;;;3.17;;
55913;SDS011;58179;48.776;9.124;2023-07-20T03:48:35;6.05;;;3.05;;
55913;SDS011;58179;48.776;9.124;2023-07-20T03:51:01;5.53;;;3.17;;
55913;SDS011;58179;48.776;9.124;2023-07-20T03:53:27;6.95;;;3.00;;
55913;SDS011;58179;48.776;9.124;2023-07-20T03:55:54;7.32;;;3.13;;
55913;SDS011;58179;48.776;9.124;2023-07-20T03:58:21;4.93;;;2.80;;
55913;SDS011;58179;48.776;9.124;2023-07-20T04:00:47;6.87;;;3.10;;
55913;SDS011;58179;48.776;9.124;2023-07-20T04:03:17;4.30;;;3.20;;
55913;SDS011;58179;48.776;9.124;2023-07-20T04:05:45;6.60;;;2.97;;
55913;SDS011;58179;48.776;9.124;2023-07-20T04:08:12;5.43;;;2.75;;
55913;SDS011;58179;48.776;9.124;2023-07-20T04:10:38;9.15;;;3.25;;
55913;SDS011;58179;48.776;9.124;2023-07-20T04:13:08;6.80;;;3.30;;
55913;SDS011;58179;48.776;9.124;2023-07-20T04:15:34;5.45;;;2.40;;
55913;SDS011;58179;48.776;9.124;2023-07-20T04:18:00;7.50;;;3.47;;
55913;SDS011;58179;48.776;9.124;2023-07-20T04:20:26;4.13;;;2.65;;
55913;SDS011;58179;48.776;9.124;2023-07-20T04:22:54;5.05;;;3.03;;
55913;SDS011;58179;48.776;9.124;2023-07-20T04:25:20;4.95;;;3.33;;
55913;SDS011;58179;48.776;9.124;2023-07-20T04:27:46;4.60;;;2.50;;
55913;SDS011;58179;48.776;9.124;2023-07-20T04:30:12;4.40;;;2.83;;
55913;SDS011;58179;48.776;9.124;2023-07-20T04:32:40;4.00;;;2.80;;
55913;SDS011;58179;48.776;9.124;2023-07-20T04:35:09;7.97;;;2.63;;
55913;SDS011;58179;48.776;9.124;2023-07-20T04:37:35;5.53;;;2.53;;
55913;SDS011;58179;48.776;9.124;2023-07-20T04:40:03;6.25;;;2.47;;
55913;SDS011;58179;48.776;9.124;2023-07-20T04:42:31;5.13;;;2.67;;
55913;SDS011;58179;48.776;9.124;2023-07-20T04:44:57;5.63;;;2.63;;
55913;SDS011;58179;48.776;9.124;2023-07-20T04:47:23;5.80;;;2.70;;
55913;SDS011;58179;48.776;9.124;2023-07-20T04:49:49;6.33;;;2.70;;
55913;SDS011;58179;48.776;9.124;2023-07-20T04:52:15;4.70;;;2.70;;
55913;SDS011;58179;48.776;9.124;2023-07-20T04:54:42;7.05;;;2.80;;
55913;SDS011;58179;48.776;9.124;2023-07-20T04:57:11;5.50;;;2.50;;
55913;SDS011;58179;48.776;9.124;2023-07-20T04:59:38;5.23;;;2.50;;
55913;SDS011;58179;48.776;9.124;2023-07-20T05:02:04;5.68;;;2.47;;
55913;SDS011;58179;48.776;9.124;2023-07-20T05:04:30;4.38;;;2.58;;
55913;SDS011;58179;48.776;9.124;2023-07-20T05:06:56;5.85;;;2.78;;
55913;SDS011;58179;48.776;9.124;2023-07-20T05:09:23;4.70;;;2.70;;
55913;SDS011;58179;48.776;9.124;2023-07-20T05:11:49;5.63;;;2.50;;
55913;SDS011;58179;48.776;9.124;2023-07-20T05:14:16;5.17;;;2.60;;
55913;SDS011;58179;48.776;9.124;2023-07-20T05:16:43;5.22;;;2.30;;
55913;SDS011;58179;48.776;9.124;2023-07-20T05:19:09;7.82;;;2.60;;
55913;SDS011;58179;48.776;9.124;2023-07-20T05:21:35;4.03;;;2.67;;
55913;SDS011;58179;48.776;9.124;2023-07-20T05:24:01;4.70;;;2.58;;
55913;SDS011;58179;48.776;9.124;2023-07-20T05:26:28;7.53;;;2.65;;
55913;SDS011;58179;48.776;9.124;2023-07-20T05:28:54;7.72;;;2.60;;
55913;SDS011;58179;48.776;9.124;2023-07-20T05:31:22;6.20;;;3.00;;
55913;SDS011;58179;48.776;9.124;2023-07-20T05:33:48;5.13;;;2.50;;
55913;SDS011;58179;48.776;9.124;2023-07-20T05:36:14;5.78;;;2.72;;
55913;SDS011;58179;48.776;9.124;2023-07-20T05:38:40;6.97;;;2.50;;
55913;SDS011;58179;48.776;9.124;2023-07-20T05:41:06;5.60;;;2.80;;
55913;SDS011;58179;48.776;9.124;2023-07-20T05:43:35;8.93;;;2.63;;
55913;SDS011;58179;48.776;9.124;2023-07-20T05:46:01;4.50;;;2.70;;
55913;SDS011;58179;48.776;9.124;2023-07-20T05:48:29;6.35;;;2.47;;
55913;SDS011;58179;48.776;9.124;2023-07-20T05:50:55;4.70;;;2.30;;
55913;SDS011;58179;48.776;9.124;2023-07-20T05:53:21;7.50;;;2.45;;
55913;SDS011;58179;48.776;9.124;2023-07-20T05:55:51;6.60;;;2.40;;
55913;SDS011;58179;48.776;9.124;2023-07-20T05:58:18;3.80;;;2.20;;
55913;SDS011;58179;48.776;9.124;2023-07-20T06:00:44;6.53;;;2.60;;
55913;SDS011;58179;48.776;9.124;2023-07-20T06:03:13;5.40;;;2.50;;
55913;SDS011;58179;48.776;9.124;2023-07-20T06:05:40;3.65;;;2.30;;
55913;SDS011;58179;48.776;9.124;2023-07-20T06:08:07;4.22;;;2.40;;
55913;SDS011;58179;48.776;9.124;2023-07-20T06:10:33;6.65;;;2.30;;
55913;SDS011;58179;48.776;9.124;2023-07-20T06:12:59;4.15;;;2.60;;
55913;SDS011;58179;48.776;9.124;2023-07-20T06:15:26;4.82;;;2.38;;
55913;SDS011;58179;48.776;9.124;2023-07-20T06:17:53;4.88;;;2.35;;
55913;SDS011;58179;48.776;9.124;2023-07-20T06:20:21;5.03;;;2.10;;
55913;SDS011;58179;48.776;9.124;2023-07-20T06:22:48;4.13;;;2.10;;
55913;SDS011;58179;48.776;9.124;2023-07-20T06:25:15;3.15;;;2.10;;
55913;SDS011;58179;48.776;9.124;2023-07-20T06:27:42;5.10;;;2.33;;
55913;SDS011;58179;48.776;9.124;2023-07-20T06:30:09;5.40;;;2.30;;
55913;SDS011;58179;48.776;9.124;2023-07-20T06:32:37;5.90;;;2.60;;
55913;SDS011;58179;48.776;9.124;2023-07-20T06:35:03;4.18;;;2.58;;
55913;SDS011;58179;48.776;9.124;2023-07-20T06:37:30;4.32;;;2.50;;
55913;SDS011;58179;48.776;9.124;2023-07-20T06:39:59;4.88;;;2.22;;
55913;SDS011;58179;48.776;9.124;2023-07-20T06:42:25;7.90;;;3.15;;
55913;SDS011;58179;48.776;9.124;2023-07-20T06:44:51;5.88;;;2.38;;
55913;SDS011;58179;48.776;9.124;2023-07-20T06:47:18;3.50;;;2.10;;
55913;SDS011;58179;48.776;9.124;2023-07-20T06:49:44;4.10;;;2.42;;
55913;SDS011;58179;48.776;9.124;2023-07-20T06:52:10;6.68;;;2.75;;
55913;SDS011;58179;48.776;9.124;2023-07-20T06:54:36;5.57;;;2.40;;
55913;SDS011;58179;48.776;9.124;2023-07-20T06:57:04;4.57;;;2.60;;
55913;SDS011;58179;48.776;9.124;2023-07-20T06:59:31;6.25;;;2.38;;
55913;SDS011;58179;48.776;9.124;2023-07-20T07:01:57;6.00;;;3.00;;
55913;SDS011;58179;48.776;9.124;2023-07-20T07:04:23;5.93;;;2.60;;
55913;SDS011;58179;48.776;9.124;2023-07-20T07:06:49;3.90;;;2.35;;
55913;SDS011;58179;48.776;9.124;2023-07-20T07:09:15;5.88;;;2.40;;
55913;SDS011;58179;48.776;9.124;2023-07-20T07:11:42;6.70;;;2.75;;
55913;SDS011;58179;48.776;9.124;2023-07-20T07:14:09;5.65;;;2.50;;
55913;SDS011;58179;48.776;9.124;2023-07-20T07:16:37;6.07;;;2.50;;
55913;SDS011;58179;48.776;9.124;2023-07-20T07:19:03;4.85;;;2.45;;
55913;SDS011;58179;48.776;9.124;2023-07-20T07:21:30;4.85;;;2.45;;
55913;SDS011;58179;48.776;9.124;2023-07-20T07:23:56;5.88;;;2.55;;
55913;SDS011;58179;48.776;9.124;2023-07-20T07:26:24;5.28;;;2.50;;
55913;SDS011;58179;48.776;9.124;2023-07-20T07:28:51;7.00;;;2.30;;
55913;SDS011;58179;48.776;9.124;2023-07-20T07:31:18;10.27;;;3.50;;
55913;SDS011;58179;48.776;9.124;2023-07-20T07:33:44;3.50;;;2.20;;
55913;SDS011;58179;48.776;9.124;2023-07-20T07:36:10;5.53;;;2.95;;
55913;SDS011;58179;48.776;9.124;2023-07-20T07:38:37;3.15;;;2.25;;
55913;SDS011;58179;48.776;9.124;2023-07-20T07:41:03;7.68;;;3.10;;
55913;SDS011;58179;48.776;9.124;2023-07-20T07:43:29;5.38;;;3.00;;
55913;SDS011;58179;48.776;9.124;2023-07-20T07:45:55;4.68;;;2.72;;
55913;SDS011;58179;48.776;9.124;2023-07-20T07:48:23;3.10;;;2.43;;
55913;SDS011;58179;48.776;9.124;2023-07-20T07:50:50;6.80;;;2.90;;
55913;SDS011;58179;48.776;9.124;2023-07-20T07:53:16;9.38;;;2.88;;
55913;SDS011;58179;48.776;9.124;2023-07-20T07:55:43;4.20;;;2.35;;
55913;SDS011;58179;48.776;9.124;2023-07-20T07:58:09;8.02;;;3.13;;
55913;SDS011;58179;48.776;9.124;2023-07-20T08:00:35;7.05;;;2.67;;
55913;SDS011;58179;48.776;9.124;2023-07-20T08:03:05;4.95;;;2.50;;
55913;SDS011;58179;48.776;9.124;2023-07-20T08:05:33;5.25;;;2.40;;
55913;SDS011;58179;48.776;9.124;2023-07-20T08:08:02;5.43;;;2.53;;
55913;SDS011;58179;48.776;9.124;2023-07-20T08:10:29;4.72;;;2.53;;
55913;SDS011;58179;48.776;9.124;2023-07-20T08:12:55;4.60;;;2.40;;
55913;SDS011;58179;48.776;9.124;2023-07-20T08:15:22;5.97;;;2.55;;
55913;SDS011;58179;48.776;9.124;2023-07-20T08:17:48;4.18;;;2.50;;
55913;SDS011;58179;48.776;9.124;2023-07-20T08:20:16;4.57;;;2.60;;
55913;SDS011;58179;48.776;9.124;2023-07-20T08:22:44;8.17;;;2.60;;
55913;SDS011;58179;48.776;9.124;2023-07-20T08:25:10;5.47;;;2.50;;
55913;SDS011;58179;48.776;9.124;2023-07-20T08:27:37;5.05;;;2.25;;
55913;SDS011;58179;48.776;9.124;2023-07-20T08:30:03;3.80;;;2.17;;
55913;SDS011;58179;48.776;9.124;2023-07-20T08:32:30;5.38;;;2.30;;
55913;SDS011;58179;48.776;9.124;2023-07-20T08:34:57;3.97;;;2.27;;
55913;SDS011;58179;48.776;9.124;2023-07-20T08:37:24;5.38;;;2.60;;
55913;SDS011;58179;48.776;9.124;2023-07-20T08:39:51;6.72;;;2.30;;
55913;SDS011;58179;48.776;9.124;2023-07-20T08:42:18;4.07;;;2.30;;
55913;SDS011;58179;48.776;9.124;2023-07-20T08:44:44;4.38;;;3.00;;
55913;SDS011;58179;48.776;9.124;2023-07-20T08:47:13;5.93;;;2.50;;
55913;SDS011;58179;48.776;9.124;2023-07-20T08:49:40;5.07;;;2.67;;
55913;SDS011;58179;48.776;9.124;2023-07-20T08:52:07;5.70;;;2.53;;
55913;SDS011;58179;48.776;9.124;2023-07-20T08:54:34;5.53;;;3.33;;
55913;SDS011;58179;48.776;9.124;2023-07-20T08:57:03;3.78;;;2.50;;
55913;SDS011;58179;48.776;9.124;2023-07-20T08:59:33;2.83;;;2.08;;
55913;SDS011;58179;48.776;9.124;2023-07-20T09:02:02;5.68;;;1.92;;
55913;SDS011;58179;48.776;9.124;2023-07-20T09:04:29;4.05;;;2.15;;
55913;SDS011;58179;48.776;9.124;2023-07-20T09:06:55;4.65;;;2.22;;
55913;SDS011;58179;48.776;9.124;2023-07-20T09:09:22;3.20;;;1.80;;
55913;SDS011;58179;48.776;9.124;2023-07-20T09:11:48;3.88;;;1.92;;
55913;SDS011;58179;48.776;9.124;2023-07-20T09:14:16;4.20;;;1.85;;
55913;SDS011;58179;48.776;9.124;2023-07-20T09:16:46;2.88;;;1.95;;
55913;SDS011;58179;48.776;9.124;2023-07-20T09:19:16;3.15;;;1.83;;
55913;SDS011;58179;48.776;9.124;2023-07-20T09:21:44;3.05;;;1.88;;
55913;SDS011;58179;48.776;9.124;2023-07-20T09:24:11;2.80;;;1.90;;
55913;SDS011;58179;48.776;9.124;2023-07-20T09:26:40;4.95;;;2.35;;
55913;SDS011;58179;48.776;9.124;2023-07-20T09:29:08;2.47;;;1.80;;
55913;SDS011;58179;48.776;9.124;2023-07-20T09:31:36;3.75;;;2.08;;
55913;SDS011;58179;48.776;9.124;2023-07-20T09:34:05;3.30;;;1.92;;
55913;SDS011;58179;48.776;9.124;2023-07-20T09:36:35;2.10;;;1.63;;
55913;SDS011;58179;48.776;9.124;2023-07-20T09:39:02;2.42;;;1.80;;
55913;SDS011;58179;48.776;9.124;2023-07-20T09:41:39;2.85;;;1.90;;
55913;SDS011;58179;48.776;9.124;2023-07-20T09:44:06;5.22;;;1.90;;
55913;SDS011;58179;48.776;9.124;2023-07-20T09:46:43;3.53;;;1.80;;
55913;SDS011;58179;48.776;9.124;2023-07-20T09:49:11;3.67;;;1.90;;
55913;SDS011;58179;48.776;9.124;2023-07-20T09:51:37;3.80;;;1.97;;
55913;SDS011;58179;48.776;9.124;2023-07-20T09:54:04;3.17;;;1.80;;
55913;SDS011;58179;48.776;9.124;2023-07-20T09:56:31;4.65;;;1.80;;
55913;SDS011;58179;48.776;9.124;2023-07-20T09:58:59;2.20;;;1.60;;
55913;SDS011;58179;48.776;9.124;2023-07-20T10:01:25;3.78;;;2.00;;
55913;SDS011;58179;48.776;9.124;2023-07-20T10:03:55;4.80;;;1.98;;
55913;SDS011;58179;48.776;9.124;2023-07-20T10:06:26;3.55;;;1.65;;
55913;SDS011;58179;48.776;9.124;2023-07-20T10:08:59;3.72;;;1.95;;
55913;SDS011;58179;48.776;9.124;2023-07-20T10:11:29;3.08;;;1.88;;
55913;SDS011;58179;48.776;9.124;2023-07-20T10:13:57;2.92;;;1.70;;
55913;SDS011;58179;48.776;9.124;2023-07-20T10:16:28;2.15;;;1.60;;
55913;SDS011;58179;48.776;9.124;2023-07-20T10:19:02;2.38;;;1.50;;
55913;SDS011;58179;48.776;9.124;2023-07-20T10:21:31;2.63;;;1.80;;
55913;SDS011;58179;48.776;9.124;2023-07-20T10:24:00;2.00;;;1.33;;
55913;SDS011;58179;48.776;9.124;2023-07-20T10:26:27;3.40;;;1.70;;
55913;SDS011;58179;48.776;9.124;2023-07-20T10:28:54;2.45;;;1.65;;
55913;SDS011;58179;48.776;9.124;2023-07-20T10:31:21;2.58;;;1.50;;
55913;SDS011;58179;48.776;9.124;2023-07-20T10:33:49;3.90;;;1.77;;
55913;SDS011;58179;48.776;9.124;2023-07-20T10:36:20;3.25;;;1.77;;
55913;SDS011;58179;48.776;9.124;2023-07-20T10:38:52;4.90;;;1.85;;
55913;SDS011;58179;48.776;9.124;2023-07-20T10:41:20;6.22;;;2.25;;
55913;SDS011;58179;48.776;9.124;2023-07-20T10:43:49;3.47;;;1.50;;
55913;SDS011;58179;48.776;9.124;2023-07-20T10:46:34;2.42;;;1.38;;
55913;SDS011;58179;48.776;9.124;2023-07-20T10:49:08;3.40;;;1.40;;
55913;SDS011;58179;48.776;9.124;2023-07-20T10:51:39;2.33;;;1.60;;
55913;SDS011;58179;48.776;9.124;2023-07-20T10:54:07;2.87;;;1.70;;
55913;SDS011;58179;48.776;9.124;2023-07-20T10:56:55;1.77;;;1.23;;
55913;SDS011;58179;48.776;9.124;2023-07-20T10:59:36;3.17;;;1.70;;
55913;SDS011;58179;48.776;9.124;2023-07-20T11:02:06;2.80;;;1.55;;
55913;SDS011;58179;48.776;9.124;2023-07-20T11:04:39;1.50;;;1.10;;
55913;SDS011;58179;48.776;9.124;2023-07-20T11:07:07;2.70;;;1.37;;
55913;SDS011;58179;48.776;9.124;2023-07-20T11:09:34;2.38;;;1.52;;
55913;SDS011;58179;48.776;9.124;2023-07-20T11:12:08;2.05;;;1.30;;
55913;SDS011;58179;48.776;9.124;2023-07-20T11:14:36;1.92;;;1.30;;
55913;SDS011;58179;48.776;9.124;2023-07-20T11:17:10;1.83;;;1.23;;
55913;SDS011;58179;48.776;9.124;2023-07-20T11:19:38;4.82;;;1.70;;
55913;SDS011;58179;48.776;9.124;2023-07-20T11:22:05;2.30;;;1.40;;
55913;SDS011;58179;48.776;9.124;2023-07-20T11:24:36;1.50;;;1.30;;
55913;SDS011;58179;48.776;9.124;2023-07-20T11:27:04;3.00;;;1.48;;
55913;SDS011;58179;48.776;9.124;2023-07-20T11:29:31;4.57;;;1.50;;
55913;SDS011;58179;48.776;9.124;2023-07-20T11:31:57;3.15;;;2.00;;
55913;SDS011;58179;48.776;9.124;2023-07-20T11:34:26;3.50;;;1.77;;
55913;SDS011;58179;48.776;9.124;2023-07-20T11:36:54;1.50;;;1.13;;
55913;SDS011;58179;48.776;9.124;2023-07-20T11:39:22;1.77;;;1.25;;
55913;SDS011;58179;48.776;9.124;2023-07-20T11:41:51;1.30;;;1.10;;
55913;SDS011;58179;48.776;9.124;2023-07-20T11:44:18;2.75;;;1.33;;
55913;SDS011;58179;48.776;9.124;2023-07-20T11:46:58;2.97;;;1.40;;
55913;SDS011;58179;48.776;9.124;2023-07-20T11:49:26;3.55;;;1.40;;
55913;SDS011;58179;48.776;9.124;2023-07-20T11:51:52;1.57;;;1.20;;
55913;SDS011;58179;48.776;9.124;2023-07-20T11:54:21;3.00;;;1.67;;
55913;SDS011;58179;48.776;9.124;2023-07-20T11:56:53;2.10;;;1.30;;
55913;SDS011;58179;48.776;9.124;2023-07-20T11:59:20;4.20;;;1.27;;
55913;SDS011;58179;48.776;9.124;2023-07-20T12:01:46;1.58;;;1.10;;
55913;SDS011;58179;48.776;9.124;2023-07-20T12:04:12;3.60;;;1.50;;
55913;SDS011;58179;48.776;9.124;2023-07-20T12:06:38;1.67;;;1.30;;
55913;SDS011;58179;48.776;9.124;2023-07-20T12:09:05;4.40;;;1.50;;
55913;SDS011;58179;48.776;9.124;2023-07-20T12:11:39;2.60;;;1.40;;
55913;SDS011;58179;48.776;9.124;2023-07-20T12:14:08;1.90;;;1.40;;
55913;SDS011;58179;48.776;9.124;2023-07-20T12:16:35;2.42;;;1.38;;
55913;SDS011;58179;48.776;9.124;2023-07-20T12:19:04;2.05;;;1.40;;
55913;SDS011;58179;48.776;9.124;2023-07-20T12:21:33;2.75;;;1.50;;
55913;SDS011;58179;48.776;9.124;2023-07-20T12:24:05;3.80;;;1.30;;
55913;SDS011;58179;48.776;9.124;2023-07-20T12:26:34;2.63;;;1.30;;
55913;SDS011;58179;48.776;9.124;2023-07-20T12:29:01;2.60;;;1.45;;
55913;SDS011;58179;48.776;9.124;2023-07-20T12:31:29;4.43;;;1.50;;
55913;SDS011;58179;48.776;9.124;2023-07-20T12:33:56;1.58;;;1.20;;
55913;SDS011;58179;48.776;9.124;2023-07-20T12:36:24;2.20;;;1.30;;
55913;SDS011;58179;48.776;9.124;2023-07-20T12:38:51;2.40;;;1.23;;
55913;SDS011;58179;48.776;9.124;2023-07-20T12:41:17;2.38;;;1.50;;
55913;SDS011;58179;48.776;9.124;2023-07-20T12:43:44;2.63;;;1.38;;
55913;SDS011;58179;48.776;9.124;2023-07-20T12:46:12;1.95;;;1.38;;
55913;SDS011;58179;48.776;9.124;2023-07-20T12:48:39;3.45;;;1.60;;
55913;SDS011;58179;48.776;9.124;2023-07-20T12:51:07;2.35;;;1.35;;
55913;SDS011;58179;48.776;9.124;2023-07-20T12:53:34;3.63;;;1.58;;
55913;SDS011;58179;48.776;9.124;2023-07-20T12:56:00;1.65;;;1.25;;
55913;SDS011;58179;48.776;9.124;2023-07-20T12:58:27;2.50;;;1.30;;
55913;SDS011;58179;48.776;9.124;2023-07-20T13:00:53;5.88;;;1.50;;
55913;SDS011;58179;48.776;9.124;2023-07-20T13:03:21;1.45;;;1.20;;
55913;SDS011;58179;48.776;9.124;2023-07-20T13:05:47;3.20;;;1.60;;
55913;SDS011;58179;48.776;9.124;2023-07-20T13:08:13;2.75;;;1.23;;
55913;SDS011;58179;48.776;9.124;2023-07-20T13:10:40;2.40;;;1.38;;
55913;SDS011;58179;48.776;9.124;2023-07-20T13:13:06;3.55;;;1.40;;
55913;SDS011;58179;48.776;9.124;2023-07-20T13:15:40;1.80;;;1.40;;
55913;SDS011;58179;48.776;9.124;2023-07-20T13:18:06;1.52;;;1.10;;
55913;SDS011;58179;48.776;9.124;2023-07-20T13:20:34;1.45;;;1.10;;
55913;SDS011;58179;48.776;9.124;2023-07-20T13:23:00;1.50;;;1.10;;
55913;SDS011;58179;48.776;9.124;2023-07-20T13:25:27;2.20;;;0.90;;
55913;SDS011;58179;48.776;9.124;2023-07-20T13:27:53;2.60;;;1.00;;
55913;SDS011;58179;48.776;9.124;2023-07-20T13:30:19;4.80;;;1.20;;
55913;SDS011;58179;48.776;9.124;2023-07-20T13:32:46;1.33;;;1.10;;
55913;SDS011;58179;48.776;9.124;2023-07-20T13:35:12;1.80;;;1.10;;
55913;SDS011;58179;48.776;9.124;2023-07-20T13:37:41;0.80;;;0.80;;
55913;SDS011;58179;48.776;9.124;2023-07-20T13:40:07;2.17;;;1.60;;
55913;SDS011;58179;48.776;9.124;2023-07-20T13:42:38;1.77;;;1.10;;
55913;SDS011;58179;48.776;9.124;2023-07-20T13:45:05;1.58;;;1.08;;
55913;SDS011;58179;48.776;9.124;2023-07-20T13:47:32;1.73;;;0.90;;
55913;SDS011;58179;48.776;9.124;2023-07-20T13:49:58;3.22;;;1.55;;
55913;SDS011;58179;48.776;9.124;2023-07-20T13:52:26;7.38;;;1.75;;
55913;SDS011;58179;48.776;9.124;2023-07-20T13:54:53;1.90;;;1.23;;
55913;SDS011;58179;48.776;9.124;2023-07-20T13:57:19;2.85;;;1.50;;
55913;SDS011;58179;48.776;9.124;2023-07-20T13:59:45;6.50;;;1.30;;
55913;SDS011;58179;48.776;9.124;2023-07-20T14:02:13;4.18;;;1.20;;
55913;SDS011;58179;48.776;9.124;2023-07-20T14:04:40;2.42;;;1.30;;
55913;SDS011;58179;48.776;9.124;2023-07-20T14:07:06;4.28;;;1.50;;
55913;SDS011;58179;48.776;9.124;2023-07-20T14:09:32;2.75;;;1.30;;
55913;SDS011;58179;48.776;9.124;2023-07-20T14:12:00;3.65;;;1.38;;
55913;SDS011;58179;48.776;9.124;2023-07-20T14:14:26;6.38;;;1.77;;
55913;SDS011;58179;48.776;9.124;2023-07-20T14:16:52;1.55;;;1.17;;
55913;SDS011;58179;48.776;9.124;2023-07-20T14:19:18;2.60;;;1.20;;
55913;SDS011;58179;48.776;9.124;2023-07-20T14:21:45;2.83;;;1.23;;
55913;SDS011;58179;48.776;9.124;2023-07-20T14:24:11;2.08;;;1.30;;
55913;SDS011;58179;48.776;9.124;2023-07-20T14:26:37;1.83;;;1.10;;
55913;SDS011;58179;48.776;9.124;2023-07-20T14:29:05;3.13;;;1.05;;
55913;SDS011;58179;48.776;9.124;2023-07-20T14:31:31;2.03;;;1.10;;
55913;SDS011;58179;48.776;9.124;2023-07-20T14:33:57;2.33;;;1.35;;
55913;SDS011;58179;48.776;9.124;2023-07-20T14:36:23;1.00;;;0.90;;
55913;SDS011;58179;48.776;9.124;2023-07-20T14:38:49;2.20;;;1.30;;
55913;SDS011;58179;48.776;9.124;2023-07-20T14:41:16;1.70;;;1.30;;
55913;SDS011;58179;48.776;9.124;2023-07-20T14:43:42;2.55;;;1.27;;
55913;SDS011;58179;48.776;9.124;2023-07-20T14:46:09;3.57;;;1.30;;
55913;SDS011;58179;48.776;9.124;2023-07-20T14:48:35;2.10;;;1.20;;
55913;SDS011;58179;48.776;9.124;2023-07-20T14:51:02;2.00;;;1.35;;
55913;SDS011;58179;48.776;9.124;2023-07-20T14:53:28;2.17;;;1.20;;
55913;SDS011;58179;48.776;9.124;2023-07-20T14:55:58;4.95;;;1.63;;